Salacak — 3FBM4 — position and weather

sailwx.info

Track history (hours):
 
Tides and Currents Weather Stations Pressure Air Temp Water Temp Dewpoint Dewpoint Depression Visibility Wind Speed Wind Dir Waves Ship Positions

Salacak

Last reported at 2014-Jul-25 03:22 UTC. Time now 2014-Jul-25 03:50 UTC.
Position N 40°58' E 028°56'.

Length 126 m; draft 5.4 m.

Type: Cargo ship. MMSI: 373532000.

Date/timePositionNaut miles runAvg speedWind from/ knotsBaromVisibWave heightAir tempDewpointWater temp
2014-Jul-25 03:22N 40°58' E 028°56'0 0.0
2014-Jul-25 01:04N 40°58' E 028°56'0 0.0
2014-Jul-25 00:22N 40°58' E 028°56'0 0.0
2014-Jul-24 23:15N 40°58' E 028°56'0 0.0
2014-Jul-24 22:33N 40°58' E 028°56'0 0.0
2014-Jul-24 21:33N 40°58' E 028°56'0 0.0
2014-Jul-24 20:27N 40°58' E 028°56'0 0.0
2014-Jul-24 19:27N 40°58' E 028°56'0 0.0
2014-Jul-24 16:27N 40°58' E 028°56'3 3.5
2014-Jul-24 15:32N 40°56' E 028°58'1010.4
2014-Jul-24 14:33N 40°51' E 029°10'2 1.9
2014-Jul-24 13:32N 40°52' E 029°12'1 0.6
2014-Jul-24 12:33N 40°51' E 029°13'8 8.1
2014-Jul-24 11:33N 40°43' E 029°15'10 9.6
2014-Jul-24 10:33N 40°41' E 029°03'5 5.1
2014-Jul-24 09:33N 40°39' E 028°56'1010.3
2014-Jul-24 08:32N 40°46' E 029°07'7 6.0
2014-Jul-24 07:22N 40°52' E 029°12'0 0.0
2014-Jul-24 06:28N 40°52' E 029°12'0 0.0
2014-Jul-24 05:31N 40°52' E 029°12'0 0.0
2014-Jul-24 04:19N 40°52' E 029°12'0 0.0
2014-Jul-24 03:31N 40°52' E 029°12'0 0.0
2014-Jul-24 02:31N 40°52' E 029°12'0 0.0
2014-Jul-24 01:31N 40°52' E 029°12'0 0.0
2014-Jul-24 00:25N 40°52' E 029°12'0 0.0
2014-Jul-23 23:31N 40°52' E 029°12'0 0.1
2014-Jul-23 22:31N 40°52' E 029°12'0 0.1
2014-Jul-23 21:31N 40°52' E 029°12'6 6.3
2014-Jul-23 20:33N 40°46' E 029°15'10 9.7
2014-Jul-23 19:33N 40°43' E 029°27'1 0.1
2014-Jul-23 13:32N 40°42' E 029°27'0 0.0
2014-Jul-23 11:26N 40°42' E 029°27'0 0.0
2014-Jul-22 15:19N 40°42' E 029°27'  
Track history (hours):
 
Tides and Currents Weather Stations Pressure Air Temp Water Temp Dewpoint Dewpoint Depression Visibility Wind Speed Wind Dir Waves Ship Positions

Salacak

Last reported at 2014-Jul-25 03:22 UTC. Time now 2014-Jul-25 03:50 UTC.
Position N 40°58' E 028°56'.

Length 126 m; draft 5.4 m.

Type: Cargo ship. MMSI: 373532000.

Date/timePositionNaut miles runAvg speedWind from/ knotsBaromVisibWave heightAir tempDewpointWater temp
2014-Jul-25 03:22N 40°58' E 028°56'0 0.0
2014-Jul-25 01:04N 40°58' E 028°56'0 0.0
2014-Jul-25 00:22N 40°58' E 028°56'0 0.0
2014-Jul-24 23:15N 40°58' E 028°56'0 0.0
2014-Jul-24 22:33N 40°58' E 028°56'0 0.0
2014-Jul-24 21:33N 40°58' E 028°56'0 0.0
2014-Jul-24 20:27N 40°58' E 028°56'0 0.0
2014-Jul-24 19:27N 40°58' E 028°56'0 0.0
2014-Jul-24 16:27N 40°58' E 028°56'3 3.5
2014-Jul-24 15:32N 40°56' E 028°58'1010.4
2014-Jul-24 14:33N 40°51' E 029°10'2 1.9
2014-Jul-24 13:32N 40°52' E 029°12'1 0.6
2014-Jul-24 12:33N 40°51' E 029°13'8 8.1
2014-Jul-24 11:33N 40°43' E 029°15'10 9.6
2014-Jul-24 10:33N 40°41' E 029°03'5 5.1
2014-Jul-24 09:33N 40°39' E 028°56'1010.3
2014-Jul-24 08:32N 40°46' E 029°07'7 6.0
2014-Jul-24 07:22N 40°52' E 029°12'0 0.0
2014-Jul-24 06:28N 40°52' E 029°12'0 0.0
2014-Jul-24 05:31N 40°52' E 029°12'0 0.0
2014-Jul-24 04:19N 40°52' E 029°12'0 0.0
2014-Jul-24 03:31N 40°52' E 029°12'0 0.0
2014-Jul-24 02:31N 40°52' E 029°12'0 0.0
2014-Jul-24 01:31N 40°52' E 029°12'0 0.0
2014-Jul-24 00:25N 40°52' E 029°12'0 0.0
2014-Jul-23 23:31N 40°52' E 029°12'0 0.1
2014-Jul-23 22:31N 40°52' E 029°12'0 0.1
2014-Jul-23 21:31N 40°52' E 029°12'6 6.3
2014-Jul-23 20:33N 40°46' E 029°15'10 9.7
2014-Jul-23 19:33N 40°43' E 029°27'1 0.1
2014-Jul-23 13:32N 40°42' E 029°27'0 0.0
2014-Jul-23 11:26N 40°42' E 029°27'0 0.0
2014-Jul-22 15:19N 40°42' E 029°27'  

Dump ship's entire track history